sensor_id;sensor_type;location;lat;lon;timestamp;pressure;altitude;pressure_sealevel;temperature;humidity
34103;BME280;20381;54.498;18.206;2023-02-01T00:01:06;97821.35;;;2.12;91.73
34103;BME280;20381;54.498;18.206;2023-02-01T00:03:34;97813.12;;;2.14;91.72
34103;BME280;20381;54.498;18.206;2023-02-01T00:06:00;97829.45;;;2.13;91.69
34103;BME280;20381;54.498;18.206;2023-02-01T00:08:27;97837.95;;;2.15;91.68
34103;BME280;20381;54.498;18.206;2023-02-01T00:11:01;97838.78;;;2.15;91.70
34103;BME280;20381;54.498;18.206;2023-02-01T00:13:36;97846.45;;;2.17;91.78
34103;BME280;20381;54.498;18.206;2023-02-01T00:16:06;97836.39;;;2.21;91.73
34103;BME280;20381;54.498;18.206;2023-02-01T00:18:35;97823.14;;;2.20;91.80
34103;BME280;20381;54.498;18.206;2023-02-01T00:21:02;97823.01;;;2.23;91.72
34103;BME280;20381;54.498;18.206;2023-02-01T00:23:31;97819.92;;;2.25;91.69
34103;BME280;20381;54.498;18.206;2023-02-01T00:26:06;97824.56;;;2.27;91.74
34103;BME280;20381;54.498;18.206;2023-02-01T00:28:34;97830.45;;;2.29;91.75
34103;BME280;20381;54.498;18.206;2023-02-01T00:31:02;97832.15;;;2.30;91.68
34103;BME280;20381;54.498;18.206;2023-02-01T00:33:30;97857.04;;;2.30;91.72
34103;BME280;20381;54.498;18.206;2023-02-01T00:36:02;97843.73;;;2.30;91.66
34103;BME280;20381;54.498;18.206;2023-02-01T00:38:31;97842.69;;;2.24;91.79
34103;BME280;20381;54.498;18.206;2023-02-01T00:41:10;97828.16;;;2.23;91.91
34103;BME280;20381;54.498;18.206;2023-02-01T00:43:38;97823.01;;;2.23;91.80
34103;BME280;20381;54.498;18.206;2023-02-01T00:46:05;97837.81;;;2.18;91.87
34103;BME280;20381;54.498;18.206;2023-02-01T00:48:32;97838.73;;;2.17;91.82
34103;BME280;20381;54.498;18.206;2023-02-01T00:51:04;97827.33;;;2.12;91.81
34103;BME280;20381;54.498;18.206;2023-02-01T00:53:32;97840.28;;;2.11;91.88
34103;BME280;20381;54.498;18.206;2023-02-01T00:56:00;97830.45;;;2.10;91.95
34103;BME280;20381;54.498;18.206;2023-02-01T00:58:27;97836.42;;;2.11;91.97
34103;BME280;20381;54.498;18.206;2023-02-01T01:01:12;97842.27;;;2.14;92.04
34103;BME280;20381;54.498;18.206;2023-02-01T01:03:41;97831.14;;;2.14;91.94
34103;BME280;20381;54.498;18.206;2023-02-01T01:06:12;97820.98;;;2.11;91.75
34103;BME280;20381;54.498;18.206;2023-02-01T01:08:41;97827.92;;;2.09;91.80
34103;BME280;20381;54.498;18.206;2023-02-01T01:13:43;97837.39;;;1.98;91.85
34103;BME280;20381;54.498;18.206;2023-02-01T01:16:12;97830.25;;;1.94;91.79
34103;BME280;20381;54.498;18.206;2023-02-01T01:18:39;97816.92;;;1.85;91.75
34103;BME280;20381;54.498;18.206;2023-02-01T01:21:07;97828.08;;;1.85;91.87
34103;BME280;20381;54.498;18.206;2023-02-01T01:23:35;97828.45;;;1.86;91.85
34103;BME280;20381;54.498;18.206;2023-02-01T01:26:08;97835.80;;;1.85;91.90
34103;BME280;20381;54.498;18.206;2023-02-01T01:28:33;97827.81;;;1.91;91.91
34103;BME280;20381;54.498;18.206;2023-02-01T01:31:00;97849.10;;;1.95;91.92
34103;BME280;20381;54.498;18.206;2023-02-01T01:33:27;97854.95;;;1.98;91.84
34103;BME280;20381;54.498;18.206;2023-02-01T01:35:55;97851.36;;;2.03;91.91
34103;BME280;20381;54.498;18.206;2023-02-01T01:38:22;97855.41;;;2.08;91.84
34103;BME280;20381;54.498;18.206;2023-02-01T01:40:48;97848.84;;;2.11;91.80
34103;BME280;20381;54.498;18.206;2023-02-01T01:43:20;97849.30;;;2.11;91.83
34103;BME280;20381;54.498;18.206;2023-02-01T01:45:50;97839.75;;;2.13;91.85
34103;BME280;20381;54.498;18.206;2023-02-01T01:48:28;97846.13;;;2.14;91.83
34103;BME280;20381;54.498;18.206;2023-02-01T01:51:08;97845.67;;;2.15;91.80
34103;BME280;20381;54.498;18.206;2023-02-01T01:53:45;97835.78;;;2.16;91.87
34103;BME280;20381;54.498;18.206;2023-02-01T01:56:24;97838.36;;;2.16;91.93
34103;BME280;20381;54.498;18.206;2023-02-01T01:58:53;97825.86;;;2.17;91.81
34103;BME280;20381;54.498;18.206;2023-02-01T02:01:20;97806.55;;;2.17;91.85
34103;BME280;20381;54.498;18.206;2023-02-01T02:03:47;97806.03;;;2.19;91.91
34103;BME280;20381;54.498;18.206;2023-02-01T02:09:12;97826.50;;;2.22;91.91
34103;BME280;20381;54.498;18.206;2023-02-01T02:11:38;97809.11;;;2.27;91.88
34103;BME280;20381;54.498;18.206;2023-02-01T02:14:08;97807.83;;;2.27;91.99
34103;BME280;20381;54.498;18.206;2023-02-01T02:16:46;97806.45;;;2.29;92.04
34103;BME280;20381;54.498;18.206;2023-02-01T02:19:30;97807.28;;;2.29;92.10
34103;BME280;20381;54.498;18.206;2023-02-01T02:44:46;97801.38;;;2.27;92.01
34103;BME280;20381;54.498;18.206;2023-02-01T02:50:38;97801.98;;;2.32;91.89
34103;BME280;20381;54.498;18.206;2023-02-01T02:53:32;97792.46;;;2.34;91.69
34103;BME280;20381;54.498;18.206;2023-02-01T02:56:20;97817.44;;;2.32;91.59
34103;BME280;20381;54.498;18.206;2023-02-01T02:59:07;97804.70;;;2.29;91.49
34103;BME280;20381;54.498;18.206;2023-02-01T03:01:54;97801.58;;;2.22;91.47
34103;BME280;20381;54.498;18.206;2023-02-01T03:04:39;97812.70;;;2.23;91.49
34103;BME280;20381;54.498;18.206;2023-02-01T03:13:12;97812.70;;;2.23;91.50
34103;BME280;20381;54.498;18.206;2023-02-01T03:15:45;97816.94;;;2.24;91.45
34103;BME280;20381;54.498;18.206;2023-02-01T03:18:26;97809.11;;;2.27;91.56
34103;BME280;20381;54.498;18.206;2023-02-01T03:20:53;97815.41;;;2.30;91.47
34103;BME280;20381;54.498;18.206;2023-02-01T03:23:25;97814.87;;;2.32;91.48
34103;BME280;20381;54.498;18.206;2023-02-01T03:25:55;97815.27;;;2.33;91.50
34103;BME280;20381;54.498;18.206;2023-02-01T03:28:25;97833.67;;;2.34;91.44
34103;BME280;20381;54.498;18.206;2023-02-01T03:30:54;97819.27;;;2.30;91.36
34103;BME280;20381;54.498;18.206;2023-02-01T03:33:23;97816.70;;;2.30;91.41
34103;BME280;20381;54.498;18.206;2023-02-01T03:36:20;97826.91;;;2.32;91.45
34103;BME280;20381;54.498;18.206;2023-02-01T03:39:23;97814.87;;;2.32;91.37
34103;BME280;20381;54.498;18.206;2023-02-01T03:41:56;97821.98;;;2.27;91.37
34103;BME280;20381;54.498;18.206;2023-02-01T03:44:50;97824.06;;;2.19;91.46
34103;BME280;20381;54.498;18.206;2023-02-01T03:47:21;97837.30;;;2.20;91.57
34103;BME280;20381;54.498;18.206;2023-02-01T03:50:02;97831.64;;;2.22;91.59
34103;BME280;20381;54.498;18.206;2023-02-01T03:52:42;97847.84;;;2.24;91.64
34103;BME280;20381;54.498;18.206;2023-02-01T03:55:13;97846.18;;;2.23;91.48
34103;BME280;20381;54.498;18.206;2023-02-01T04:00:36;97805.25;;;2.17;91.59
34103;BME280;20381;54.498;18.206;2023-02-01T04:03:03;97836.39;;;2.21;91.65
34103;BME280;20381;54.498;18.206;2023-02-01T04:05:32;97835.51;;;2.22;91.67
34103;BME280;20381;54.498;18.206;2023-02-01T04:07:59;97818.63;;;2.25;91.76
34103;BME280;20381;54.498;18.206;2023-02-01T04:10:26;97823.51;;;2.31;91.81
34103;BME280;20381;54.498;18.206;2023-02-01T04:12:52;97824.28;;;2.33;91.82
34103;BME280;20381;54.498;18.206;2023-02-01T04:15:19;97822.03;;;2.36;91.80
34103;BME280;20381;54.498;18.206;2023-02-01T04:17:45;97820.14;;;2.39;91.84
34103;BME280;20381;54.498;18.206;2023-02-01T04:20:12;97827.22;;;2.44;91.83
34103;BME280;20381;54.498;18.206;2023-02-01T04:22:39;97837.38;;;2.48;91.87
34103;BME280;20381;54.498;18.206;2023-02-01T04:25:06;97831.72;;;2.50;91.85
34103;BME280;20381;54.498;18.206;2023-02-01T04:27:34;97849.75;;;2.50;91.80
34103;BME280;20381;54.498;18.206;2023-02-01T04:30:00;97834.66;;;2.51;91.80
34103;BME280;20381;54.498;18.206;2023-02-01T04:32:27;97836.47;;;2.49;91.71
34103;BME280;20381;54.498;18.206;2023-02-01T04:34:54;97854.41;;;2.41;91.51
34103;BME280;20381;54.498;18.206;2023-02-01T04:37:21;97847.97;;;2.31;91.48
34103;BME280;20381;54.498;18.206;2023-02-01T04:39:47;97857.26;;;2.25;91.46
34103;BME280;20381;54.498;18.206;2023-02-01T04:42:14;97845.41;;;2.21;91.57
34103;BME280;20381;54.498;18.206;2023-02-01T04:44:40;97835.87;;;2.23;91.75
34103;BME280;20381;54.498;18.206;2023-02-01T04:47:07;97835.51;;;2.22;91.72
34103;BME280;20381;54.498;18.206;2023-02-01T04:49:34;97827.24;;;2.24;91.76
34103;BME280;20381;54.498;18.206;2023-02-01T04:52:01;97831.00;;;2.27;91.85
34103;BME280;20381;54.498;18.206;2023-02-01T04:54:28;97824.02;;;2.29;91.83
34103;BME280;20381;54.498;18.206;2023-02-01T04:56:54;97816.55;;;2.33;91.85
34103;BME280;20381;54.498;18.206;2023-02-01T04:59:21;97822.34;;;2.38;91.81
34103;BME280;20381;54.498;18.206;2023-02-01T05:01:48;97822.34;;;2.38;91.72
34103;BME280;20381;54.498;18.206;2023-02-01T05:04:15;97837.94;;;2.35;91.59
34103;BME280;20381;54.498;18.206;2023-02-01T05:06:43;97840.76;;;2.29;91.49
34103;BME280;20381;54.498;18.206;2023-02-01T05:09:24;97840.12;;;2.24;91.51
34103;BME280;20381;54.498;18.206;2023-02-01T05:11:43;97836.84;;;2.20;91.53
34103;BME280;20381;54.498;18.206;2023-02-01T05:14:27;97834.49;;;2.16;91.62
34103;BME280;20381;54.498;18.206;2023-02-01T05:16:54;97841.49;;;2.12;91.49
34103;BME280;20381;54.498;18.206;2023-02-01T05:19:25;97833.20;;;2.06;91.50
34103;BME280;20381;54.498;18.206;2023-02-01T05:22:02;97842.73;;;2.04;91.55
34103;BME280;20381;54.498;18.206;2023-02-01T05:24:29;97846.34;;;1.99;91.50
34103;BME280;20381;54.498;18.206;2023-02-01T05:26:56;97839.50;;;1.98;91.72
34103;BME280;20381;54.498;18.206;2023-02-01T05:29:23;97831.55;;;2.05;91.94
34103;BME280;20381;54.498;18.206;2023-02-01T05:31:49;97851.79;;;2.12;91.93
34103;BME280;20381;54.498;18.206;2023-02-01T05:34:16;97857.02;;;2.11;91.95
34103;BME280;20381;54.498;18.206;2023-02-01T05:36:42;97846.45;;;2.17;92.06
34103;BME280;20381;54.498;18.206;2023-02-01T05:39:12;97842.00;;;2.20;92.01
34103;BME280;20381;54.498;18.206;2023-02-01T05:41:38;97849.40;;;2.28;92.13
34103;BME280;20381;54.498;18.206;2023-02-01T05:44:05;97835.47;;;2.32;92.14
34103;BME280;20381;54.498;18.206;2023-02-01T05:46:35;97837.02;;;2.36;92.17
34103;BME280;20381;54.498;18.206;2023-02-01T05:49:03;97845.39;;;2.41;92.22
34103;BME280;20381;54.498;18.206;2023-02-01T05:51:30;97842.16;;;2.46;92.21
34103;BME280;20381;54.498;18.206;2023-02-01T05:53:57;97844.97;;;2.51;92.23
34103;BME280;20381;54.498;18.206;2023-02-01T05:56:23;97826.66;;;2.57;92.26
34103;BME280;20381;54.498;18.206;2023-02-01T05:58:50;97827.80;;;2.60;92.30
34103;BME280;20381;54.498;18.206;2023-02-01T06:01:17;97830.23;;;2.63;92.35
34103;BME280;20381;54.498;18.206;2023-02-01T06:03:50;97838.38;;;2.64;92.31
34103;BME280;20381;54.498;18.206;2023-02-01T06:06:16;97852.77;;;2.68;92.36
34103;BME280;20381;54.498;18.206;2023-02-01T06:08:45;97854.33;;;2.72;92.38
34103;BME280;20381;54.498;18.206;2023-02-01T06:13:46;97855.98;;;2.73;92.45
34103;BME280;20381;54.498;18.206;2023-02-01T06:16:12;97843.41;;;2.76;92.43
34103;BME280;20381;54.498;18.206;2023-02-01T06:18:42;97839.86;;;2.78;92.46
34103;BME280;20381;54.498;18.206;2023-02-01T06:21:11;97854.81;;;2.80;92.51
34103;BME280;20381;54.498;18.206;2023-02-01T06:23:40;97844.10;;;2.79;92.63
34103;BME280;20381;54.498;18.206;2023-02-01T06:26:19;97850.41;;;2.82;92.47
34103;BME280;20381;54.498;18.206;2023-02-01T06:29:36;97856.47;;;2.81;92.43
34103;BME280;20381;54.498;18.206;2023-02-01T06:34:17;97851.37;;;2.80;92.49
34103;BME280;20381;54.498;18.206;2023-02-01T06:36:44;97852.98;;;2.82;92.59
34103;BME280;20381;54.498;18.206;2023-02-01T06:39:10;97857.39;;;2.80;92.52
34103;BME280;20381;54.498;18.206;2023-02-01T06:41:39;97852.23;;;2.80;92.56
34103;BME280;20381;54.498;18.206;2023-02-01T06:44:06;97859.97;;;2.80;92.51
34103;BME280;20381;54.498;18.206;2023-02-01T06:46:32;97867.61;;;2.82;92.58
34103;BME280;20381;54.498;18.206;2023-02-01T06:49:01;97874.37;;;2.84;92.62
34103;BME280;20381;54.498;18.206;2023-02-01T06:51:27;97876.03;;;2.85;92.59
34103;BME280;20381;54.498;18.206;2023-02-01T06:53:56;97863.00;;;2.88;92.59
34103;BME280;20381;54.498;18.206;2023-02-01T06:56:22;97876.30;;;2.89;92.63
34103;BME280;20381;54.498;18.206;2023-02-01T06:58:49;97868.93;;;2.90;92.58
34103;BME280;20381;54.498;18.206;2023-02-01T07:01:17;97857.19;;;2.94;92.59
34103;BME280;20381;54.498;18.206;2023-02-01T07:03:49;97874.34;;;2.95;92.58
34103;BME280;20381;54.498;18.206;2023-02-01T07:06:17;97885.03;;;2.96;92.60
34103;BME280;20381;54.498;18.206;2023-02-01T07:08:44;97877.67;;;2.97;92.53
34103;BME280;20381;54.498;18.206;2023-02-01T07:11:13;97884.89;;;2.99;92.55
34103;BME280;20381;54.498;18.206;2023-02-01T07:13:40;97868.53;;;3.00;92.49
34103;BME280;20381;54.498;18.206;2023-02-01T07:16:11;97895.05;;;3.02;92.51
34103;BME280;20381;54.498;18.206;2023-02-01T07:18:41;97886.03;;;3.02;92.47
34103;BME280;20381;54.498;18.206;2023-02-01T07:21:09;97893.11;;;3.07;92.49
34103;BME280;20381;54.498;18.206;2023-02-01T07:23:35;97899.81;;;3.11;92.47
34103;BME280;20381;54.498;18.206;2023-02-01T07:26:05;97897.83;;;3.16;92.43
34103;BME280;20381;54.498;18.206;2023-02-01T07:28:35;97892.62;;;3.18;92.28
34103;BME280;20381;54.498;18.206;2023-02-01T07:31:07;97902.62;;;3.15;92.25
34103;BME280;20381;54.498;18.206;2023-02-01T07:33:35;97874.63;;;3.16;92.31
34103;BME280;20381;54.498;18.206;2023-02-01T07:36:04;97908.00;;;3.19;92.18
34103;BME280;20381;54.498;18.206;2023-02-01T07:38:32;97912.27;;;3.20;92.20
34103;BME280;20381;54.498;18.206;2023-02-01T07:41:00;97901.30;;;3.25;92.20
34103;BME280;20381;54.498;18.206;2023-02-01T07:43:30;97898.57;;;3.28;92.12
34103;BME280;20381;54.498;18.206;2023-02-01T07:45:59;97894.55;;;3.31;92.15
34103;BME280;20381;54.498;18.206;2023-02-01T07:48:26;97909.88;;;3.34;92.06
34103;BME280;20381;54.498;18.206;2023-02-01T07:51:04;97902.92;;;3.36;91.92
34103;BME280;20381;54.498;18.206;2023-02-01T07:53:34;97914.75;;;3.41;92.07
34103;BME280;20381;54.498;18.206;2023-02-01T07:56:08;97898.50;;;3.39;91.78
34103;BME280;20381;54.498;18.206;2023-02-01T07:58:37;97899.27;;;3.41;91.88
34103;BME280;20381;54.498;18.206;2023-02-01T08:01:04;97896.32;;;3.40;91.96
34103;BME280;20381;54.498;18.206;2023-02-01T08:03:57;97900.81;;;3.45;91.82
34103;BME280;20381;54.498;18.206;2023-02-01T08:06:32;97897.31;;;3.46;91.65
34103;BME280;20381;54.498;18.206;2023-02-01T08:09:01;97893.81;;;3.47;91.57
34103;BME280;20381;54.498;18.206;2023-02-01T08:11:28;97884.27;;;3.49;91.58
34103;BME280;20381;54.498;18.206;2023-02-01T08:13:54;97898.83;;;3.50;91.44
34103;BME280;20381;54.498;18.206;2023-02-01T08:16:22;97908.31;;;3.49;91.37
34103;BME280;20381;54.498;18.206;2023-02-01T08:18:51;97882.45;;;3.51;91.46
34103;BME280;20381;54.498;18.206;2023-02-01T08:21:21;97902.33;;;3.49;91.21
34103;BME280;20381;54.498;18.206;2023-02-01T08:23:50;97896.80;;;3.48;91.16
34103;BME280;20381;54.498;18.206;2023-02-01T08:26:22;97916.37;;;3.52;91.23
34103;BME280;20381;54.498;18.206;2023-02-01T08:28:56;97899.45;;;3.55;91.21
34103;BME280;20381;54.498;18.206;2023-02-01T08:31:27;97903.02;;;3.61;91.10
34103;BME280;20381;54.498;18.206;2023-02-01T08:33:57;97904.19;;;3.64;90.97
34103;BME280;20381;54.498;18.206;2023-02-01T08:36:27;97909.47;;;3.61;90.75
34103;BME280;20381;54.498;18.206;2023-02-01T08:38:56;97909.47;;;3.61;90.69
34103;BME280;20381;54.498;18.206;2023-02-01T08:41:25;97919.20;;;3.56;90.44
34103;BME280;20381;54.498;18.206;2023-02-01T08:43:53;97921.02;;;3.54;90.53
34103;BME280;20381;54.498;18.206;2023-02-01T08:46:26;97920.49;;;3.56;90.49
34103;BME280;20381;54.498;18.206;2023-02-01T08:48:57;97923.59;;;3.54;90.37
34103;BME280;20381;54.498;18.206;2023-02-01T08:51:23;97919.92;;;3.49;90.22
34103;BME280;20381;54.498;18.206;2023-02-01T08:53:51;97925.70;;;3.46;90.29
34103;BME280;20381;54.498;18.206;2023-02-01T08:56:19;97938.89;;;3.40;89.85
34103;BME280;20381;54.498;18.206;2023-02-01T08:58:46;97938.89;;;3.40;89.85
34103;BME280;20381;54.498;18.206;2023-02-01T09:01:15;97900.86;;;3.34;90.02
34103;BME280;20381;54.498;18.206;2023-02-01T09:03:44;97921.33;;;3.29;89.85
34103;BME280;20381;54.498;18.206;2023-02-01T09:06:16;97943.77;;;3.27;90.00
34103;BME280;20381;54.498;18.206;2023-02-01T09:08:44;97924.52;;;3.25;89.94
34103;BME280;20381;54.498;18.206;2023-02-01T09:11:23;97925.40;;;3.24;89.90
34103;BME280;20381;54.498;18.206;2023-02-01T09:13:53;97924.05;;;3.26;90.00
34103;BME280;20381;54.498;18.206;2023-02-01T09:16:19;97936.80;;;3.29;89.98
34103;BME280;20381;54.498;18.206;2023-02-01T09:18:46;97924.36;;;3.28;89.90
34103;BME280;20381;54.498;18.206;2023-02-01T09:21:13;97923.81;;;3.30;89.87
34103;BME280;20381;54.498;18.206;2023-02-01T09:23:44;97917.37;;;3.30;89.86
34103;BME280;20381;54.498;18.206;2023-02-01T09:26:12;97927.80;;;3.38;89.94
34103;BME280;20381;54.498;18.206;2023-02-01T09:28:39;97930.38;;;3.38;89.84
34103;BME280;20381;54.498;18.206;2023-02-01T09:31:06;97923.01;;;3.39;89.77
34103;BME280;20381;54.498;18.206;2023-02-01T09:33:35;97925.07;;;3.41;89.80
34103;BME280;20381;54.498;18.206;2023-02-01T09:36:04;97923.27;;;3.43;89.83
34103;BME280;20381;54.498;18.206;2023-02-01T09:38:34;97934.20;;;3.48;89.87
34103;BME280;20381;54.498;18.206;2023-02-01T09:41:10;97925.55;;;3.49;89.80
34103;BME280;20381;54.498;18.206;2023-02-01T09:43:51;97926.17;;;3.54;89.82
34103;BME280;20381;54.498;18.206;2023-02-01T09:46:36;97926.85;;;3.57;89.77
34103;BME280;20381;54.498;18.206;2023-02-01T09:49:19;97917.09;;;3.64;89.72
34103;BME280;20381;54.498;18.206;2023-02-01T09:51:46;97916.94;;;3.67;89.71
34103;BME280;20381;54.498;18.206;2023-02-01T09:54:21;97924.75;;;3.66;89.80
34103;BME280;20381;54.498;18.206;2023-02-01T09:57:11;97931.36;;;3.71;89.72
34103;BME280;20381;54.498;18.206;2023-02-01T09:59:47;97928.78;;;3.71;89.57
34103;BME280;20381;54.498;18.206;2023-02-01T10:02:27;97933.57;;;3.70;89.62
34103;BME280;20381;54.498;18.206;2023-02-01T10:05:15;97928.16;;;3.66;89.54
34103;BME280;20381;54.498;18.206;2023-02-01T10:07:56;97925.67;;;3.65;89.67
34103;BME280;20381;54.498;18.206;2023-02-01T10:10:28;97932.48;;;3.66;89.66
34103;BME280;20381;54.498;18.206;2023-02-01T10:18:52;97919.69;;;3.81;89.81
34103;BME280;20381;54.498;18.206;2023-02-01T10:21:58;97918.77;;;3.83;89.78
34103;BME280;20381;54.498;18.206;2023-02-01T10:27:33;97921.34;;;3.83;89.60
34103;BME280;20381;54.498;18.206;2023-02-01T10:30:47;97928.94;;;3.86;89.66
34103;BME280;20381;54.498;18.206;2023-02-01T10:33:29;97916.28;;;4.07;89.98
34103;BME280;20381;54.498;18.206;2023-02-01T10:39:19;97926.75;;;4.21;89.49
34103;BME280;20381;54.498;18.206;2023-02-01T10:48:17;97924.16;;;4.30;89.58
34103;BME280;20381;54.498;18.206;2023-02-01T10:50:49;97911.53;;;4.41;89.52
34103;BME280;20381;54.498;18.206;2023-02-01T10:56:48;97915.58;;;4.30;89.18
34103;BME280;20381;54.498;18.206;2023-02-01T10:59:18;97919.21;;;4.25;89.26
34103;BME280;20381;54.498;18.206;2023-02-01T11:02:15;97915.06;;;4.23;89.18
34103;BME280;20381;54.498;18.206;2023-02-01T11:04:45;97918.92;;;4.14;89.13
34103;BME280;20381;54.498;18.206;2023-02-01T11:07:25;97926.45;;;4.10;89.02
34103;BME280;20381;54.498;18.206;2023-02-01T11:09:54;97935.19;;;3.99;88.89
34103;BME280;20381;54.498;18.206;2023-02-01T11:15:18;97930.33;;;3.93;89.03
34103;BME280;20381;54.498;18.206;2023-02-01T11:17:48;97920.73;;;3.95;88.95
34103;BME280;20381;54.498;18.206;2023-02-01T11:20:39;97924.09;;;3.97;89.02
34103;BME280;20381;54.498;18.206;2023-02-01T11:23:15;97923.78;;;4.03;89.11
34103;BME280;20381;54.498;18.206;2023-02-01T11:25:54;97930.95;;;3.98;88.60
34103;BME280;20381;54.498;18.206;2023-02-01T11:28:26;97927.65;;;3.77;88.33
34103;BME280;20381;54.498;18.206;2023-02-01T11:31:00;97943.17;;;3.58;88.25
34103;BME280;20381;54.498;18.206;2023-02-01T11:33:35;97940.23;;;3.38;88.10
34103;BME280;20381;54.498;18.206;2023-02-01T11:36:16;97937.92;;;3.23;88.34
34103;BME280;20381;54.498;18.206;2023-02-01T11:38:53;97950.96;;;3.20;88.46
34103;BME280;20381;54.498;18.206;2023-02-01T11:41:58;97937.58;;;3.12;88.33
34103;BME280;20381;54.498;18.206;2023-02-01T11:44:44;97910.88;;;3.13;88.46
34103;BME280;20381;54.498;18.206;2023-02-01T11:47:20;97943.16;;;3.03;88.23
34103;BME280;20381;54.498;18.206;2023-02-01T11:49:55;97935.42;;;3.03;88.48
34103;BME280;20381;54.498;18.206;2023-02-01T11:55:55;97942.45;;;3.73;88.36
34103;BME280;20381;54.498;18.206;2023-02-01T11:58:50;97946.48;;;3.43;87.86
34103;BME280;20381;54.498;18.206;2023-02-01T12:13:11;97959.94;;;2.93;88.55
34103;BME280;20381;54.498;18.206;2023-02-01T12:16:07;97956.86;;;2.84;88.12
34103;BME280;20381;54.498;18.206;2023-02-01T12:24:46;97966.06;;;2.30;88.18
34103;BME280;20381;54.498;18.206;2023-02-01T12:33:41;97949.31;;;1.99;88.29
34103;BME280;20381;54.498;18.206;2023-02-01T12:39:05;97943.64;;;2.32;89.21
34103;BME280;20381;54.498;18.206;2023-02-01T12:41:49;97945.58;;;2.58;89.05
34103;BME280;20381;54.498;18.206;2023-02-01T12:44:36;97934.44;;;2.86;88.93
34103;BME280;20381;54.498;18.206;2023-02-01T12:47:14;97954.05;;;2.80;88.61
34103;BME280;20381;54.498;18.206;2023-02-01T12:50:20;97949.81;;;2.69;88.66
34103;BME280;20381;54.498;18.206;2023-02-01T12:52:53;97951.16;;;2.57;88.54
34103;BME280;20381;54.498;18.206;2023-02-01T12:55:34;97951.64;;;2.46;88.73
34103;BME280;20381;54.498;18.206;2023-02-01T12:58:31;97941.98;;;2.41;88.77
34103;BME280;20381;54.498;18.206;2023-02-01T13:01:05;97943.41;;;2.38;89.03
34103;BME280;20381;54.498;18.206;2023-02-01T13:06:46;97947.70;;;2.58;89.26
34103;BME280;20381;54.498;18.206;2023-02-01T13:09:31;97947.09;;;2.72;89.21
34103;BME280;20381;54.498;18.206;2023-02-01T13:12:17;97955.80;;;2.88;89.32
34103;BME280;20381;54.498;18.206;2023-02-01T13:14:58;97948.98;;;2.87;89.10
34103;BME280;20381;54.498;18.206;2023-02-01T13:17:40;97944.33;;;2.96;89.43
34103;BME280;20381;54.498;18.206;2023-02-01T13:20:20;97927.55;;;3.06;89.47
34103;BME280;20381;54.498;18.206;2023-02-01T13:25:51;97937.03;;;3.05;89.40
34103;BME280;20381;54.498;18.206;2023-02-01T13:40:45;97930.80;;;2.90;89.63
34103;BME280;20381;54.498;18.206;2023-02-01T13:43:22;97929.38;;;2.94;89.62
34103;BME280;20381;54.498;18.206;2023-02-01T13:45:55;97930.66;;;2.94;89.74
34103;BME280;20381;54.498;18.206;2023-02-01T13:48:26;97932.21;;;2.98;89.76
34103;BME280;20381;54.498;18.206;2023-02-01T13:50:59;97945.73;;;3.03;89.80
34103;BME280;20381;54.498;18.206;2023-02-01T13:53:52;97943.91;;;3.05;89.80
34103;BME280;20381;54.498;18.206;2023-02-01T13:56:18;97938.61;;;3.08;89.78
34103;BME280;20381;54.498;18.206;2023-02-01T13:58:47;97936.48;;;3.07;89.82
34103;BME280;20381;54.498;18.206;2023-02-01T14:04:00;97943.53;;;3.04;89.70
34103;BME280;20381;54.498;18.206;2023-02-01T14:09:18;97952.27;;;3.10;89.98
34103;BME280;20381;54.498;18.206;2023-02-01T14:17:36;97958.28;;;2.81;88.98
34103;BME280;20381;54.498;18.206;2023-02-01T14:19:34;97964.91;;;2.58;88.87
34103;BME280;20381;54.498;18.206;2023-02-01T14:24:54;97968.23;;;2.29;89.11
34103;BME280;20381;54.498;18.206;2023-02-01T14:27:28;97971.25;;;2.18;89.28
34103;BME280;20381;54.498;18.206;2023-02-01T14:29:58;97970.29;;;2.21;89.55
34103;BME280;20381;54.498;18.206;2023-02-01T14:32:44;97975.44;;;2.21;89.56
34103;BME280;20381;54.498;18.206;2023-02-01T14:35:18;97977.52;;;2.23;89.50
34103;BME280;20381;54.498;18.206;2023-02-01T14:37:52;97990.02;;;2.22;89.43
34103;BME280;20381;54.498;18.206;2023-02-01T14:40:27;97990.26;;;2.26;89.57
34103;BME280;20381;54.498;18.206;2023-02-01T14:42:55;97992.26;;;2.19;89.75
34103;BME280;20381;54.498;18.206;2023-02-01T14:50:47;97987.03;;;2.11;89.19
34103;BME280;20381;54.498;18.206;2023-02-01T14:53:23;97991.45;;;1.97;89.37
34103;BME280;20381;54.498;18.206;2023-02-01T14:56:08;97979.84;;;1.87;89.27
34103;BME280;20381;54.498;18.206;2023-02-01T14:59:06;97996.11;;;1.77;89.23
34103;BME280;20381;54.498;18.206;2023-02-01T15:01:35;97989.30;;;1.64;89.26
34103;BME280;20381;54.498;18.206;2023-02-01T15:04:09;97978.42;;;1.58;89.47
34103;BME280;20381;54.498;18.206;2023-02-01T15:06:57;97984.86;;;1.58;89.62
34103;BME280;20381;54.498;18.206;2023-02-01T15:12:17;97970.84;;;1.65;89.72
34103;BME280;20381;54.498;18.206;2023-02-01T15:15:15;97978.06;;;1.67;89.70
34103;BME280;20381;54.498;18.206;2023-02-01T15:17:58;97980.01;;;1.72;89.83
34103;BME280;20381;54.498;18.206;2023-02-01T15:20:32;97984.41;;;1.80;89.90
34103;BME280;20381;54.498;18.206;2023-02-01T15:23:03;97991.92;;;1.85;89.89
34103;BME280;20381;54.498;18.206;2023-02-01T15:25:34;97987.11;;;1.87;90.04
34103;BME280;20381;54.498;18.206;2023-02-01T15:28:14;97997.56;;;1.94;90.03
34103;BME280;20381;54.498;18.206;2023-02-01T15:31:03;97991.83;;;1.98;90.01
34103;BME280;20381;54.498;18.206;2023-02-01T15:33:30;97978.50;;;1.98;89.96
34103;BME280;20381;54.498;18.206;2023-02-01T15:36:11;97986.23;;;1.98;90.01
34103;BME280;20381;54.498;18.206;2023-02-01T15:38:45;97969.91;;;1.99;90.01
34103;BME280;20381;54.498;18.206;2023-02-01T15:46:52;97988.17;;;2.04;90.18
34103;BME280;20381;54.498;18.206;2023-02-01T15:49:05;97986.00;;;2.05;90.31
34103;BME280;20381;54.498;18.206;2023-02-01T15:51:54;97974.80;;;2.06;90.36
34103;BME280;20381;54.498;18.206;2023-02-01T15:54:37;97985.09;;;2.06;90.42
34103;BME280;20381;54.498;18.206;2023-02-01T15:57:05;97984.19;;;2.07;90.49